LTAD/ANK METAR and TAF weather

Enter ICAO airport designator
Station Type Date Time Source
LTAD METAR 2020/01/19 13:50 UTC NOAA

LTAD 191350Z 35003KT 9999 SCT035 BKN090 01/M03 Q1019 NOSIG RMK RWY29 VRB02KT


Station Type Date Time Source
LTAD Decoded METAR 2020/01/19 13:50 UTC NOAA

Ankara / Etimesgut, Turkey (LTAD) 39-57N 032-41E 806M
Jan 19, 2020 - 08:50 AM EST / 2020.01.19 1350 UTC
Wind: from the N (350 degrees) at 3 MPH (3 KT):0
Visibility: greater than 7 mile(s):0
Sky conditions: mostly cloudy
Temperature: 33 F (1 C)
Dew Point: 26 F (-3 C)
Relative Humidity: 74%
Pressure (altimeter): 30.09 in. Hg (1019 hPa)
ob: LTAD 191350Z 35003KT 9999 SCT035 BKN090 01/M03 Q1019 NOSIG RMK RWY29 VRB02KT
cycle: 14

Station Type Date Time Source
LTAD TAF UTC NOAA

Error!

Example: see airport list